createdAt,value
2019-05-03T00:02:32.321Z,18.20
2019-05-03T00:05:16.861Z,16.90
2019-05-03T00:07:47.337Z,19.03
2019-05-03T00:10:31.661Z,18.45
2019-05-03T00:13:15.417Z,20.80
2019-05-03T00:15:52.224Z,19.25
2019-05-03T00:18:23.493Z,20.90
2019-05-03T00:20:54.535Z,20.82
2019-05-03T00:23:29.756Z,21.70
2019-05-03T00:26:02.567Z,22.77
2019-05-03T00:28:32.573Z,23.73
2019-05-03T00:31:05.742Z,24.85
2019-05-03T00:33:37.538Z,24.10
2019-05-03T00:36:14.905Z,25.20
2019-05-03T00:38:47.054Z,24.43
2019-05-03T00:41:21.590Z,24.25
2019-05-03T00:43:54.653Z,23.98
2019-05-03T00:46:28.826Z,24.15
2019-05-03T00:49:00.842Z,27.58
2019-05-03T00:51:32.892Z,24.87
2019-05-03T00:54:04.009Z,26.70
2019-05-03T00:56:34.180Z,27.75
2019-05-03T00:59:12.733Z,28.17
2019-05-03T01:01:55.492Z,30.37
2019-05-03T01:04:26.539Z,31.12
2019-05-03T01:06:59.705Z,29.45
2019-05-03T01:09:31.716Z,29.95
2019-05-03T01:12:02.196Z,31.27
2019-05-03T01:14:34.520Z,31.90
2019-05-03T01:17:11.626Z,32.10
2019-05-03T01:19:46.664Z,31.82
2019-05-03T01:22:23.593Z,35.65
2019-05-03T01:25:02.841Z,31.17
2019-05-03T01:27:44.379Z,34.80
2019-05-03T01:30:36.337Z,34.08
2019-05-03T01:33:22.581Z,34.70
2019-05-03T01:36:02.672Z,34.65
2019-05-03T01:38:38.874Z,33.45
2019-05-03T01:41:29.997Z,32.35
2019-05-03T01:44:07.098Z,31.15
2019-05-03T01:46:45.257Z,31.80
2019-05-03T01:49:35.842Z,35.10
2019-05-03T01:52:12.461Z,34.33
2019-05-03T01:54:42.696Z,34.95
2019-05-03T01:57:23.902Z,33.45
2019-05-03T01:59:54.029Z,33.50
2019-05-03T02:02:32.395Z,34.13
2019-05-03T02:05:15.220Z,33.73
2019-05-03T02:07:51.941Z,32.78
2019-05-03T02:10:25.137Z,36.60
2019-05-03T02:12:58.292Z,33.92
2019-05-03T02:15:28.380Z,33.73
2019-05-03T02:18:02.518Z,35.68
2019-05-03T02:20:38.940Z,33.08
2019-05-03T02:23:14.045Z,34.03
2019-05-03T02:25:55.544Z,35.48
2019-05-03T02:28:17.866Z,35.33
2019-05-03T02:30:54.830Z,33.58
2019-05-03T02:33:28.965Z,34.43
2019-05-03T02:36:23.546Z,34.92
2019-05-03T02:38:57.109Z,33.70
2019-05-03T02:41:27.217Z,33.33
2019-05-03T02:43:58.662Z,33.63
2019-05-03T02:46:36.418Z,34.78
2019-05-03T02:49:18.776Z,34.30
2019-05-03T02:51:50.794Z,31.90
2019-05-03T02:54:38.212Z,31.10
2019-05-03T02:57:18.394Z,30.37
2019-05-03T02:59:58.409Z,30.68
2019-05-03T03:02:29.753Z,32.75
2019-05-03T03:05:02.297Z,32.98
2019-05-03T03:07:37.470Z,32.23
2019-05-03T03:10:08.876Z,32.75
2019-05-03T03:12:55.329Z,32.10
2019-05-03T03:15:45.812Z,32.42
2019-05-03T03:18:25.945Z,32.42
2019-05-03T03:21:09.549Z,35.05
2019-05-03T03:24:06.080Z,32.88
2019-05-03T03:26:43.124Z,34.20
2019-05-03T03:29:16.149Z,35.03
2019-05-03T03:32:19.733Z,36.98
2019-05-03T03:35:29.063Z,34.92
2019-05-03T03:37:56.072Z,35.50
2019-05-03T03:40:28.822Z,36.75
2019-05-03T03:43:05.220Z,35.43
2019-05-03T03:45:46.109Z,37.38
2019-05-03T03:48:19.639Z,37.35
2019-05-03T03:51:09.086Z,37.17
2019-05-03T03:53:42.627Z,38.05
2019-05-03T03:56:21.401Z,38.45
2019-05-03T03:59:01.647Z,39.30
2019-05-03T04:01:37.511Z,37.50
2019-05-03T04:04:10.303Z,40.55
2019-05-03T04:06:50.299Z,39.27
2019-05-03T04:09:21.082Z,40.23
2019-05-03T04:11:52.706Z,40.67
2019-05-03T04:14:48.706Z,40.60
2019-05-03T04:17:21.281Z,39.88
2019-05-03T04:19:57.881Z,39.33
2019-05-03T04:22:31.566Z,38.48
2019-05-03T04:25:15.378Z,37.95
2019-05-03T04:27:55.941Z,40.25
2019-05-03T04:30:36.341Z,40.43
2019-05-03T04:33:16.062Z,39.00
2019-05-03T04:35:46.704Z,41.33
2019-05-03T04:38:16.714Z,39.80
2019-05-03T04:40:48.750Z,38.45
2019-05-03T04:43:22.122Z,42.00
2019-05-03T04:46:06.679Z,41.10
2019-05-03T04:48:37.001Z,40.43
2019-05-03T04:51:16.680Z,40.28
2019-05-03T04:53:50.733Z,40.60
2019-05-03T04:56:21.806Z,41.88
2019-05-03T04:58:51.901Z,39.08
2019-05-03T05:01:26.116Z,36.98
2019-05-03T05:04:02.394Z,38.92
2019-05-03T05:06:34.885Z,38.85
2019-05-03T05:09:06.802Z,38.75
2019-05-03T05:11:37.885Z,35.48
2019-05-03T05:14:15.130Z,36.75
2019-05-03T05:16:55.480Z,35.13
2019-05-03T05:19:33.413Z,37.67
2019-05-03T05:22:15.549Z,34.70
2019-05-03T05:24:46.851Z,35.88
2019-05-03T05:27:48.783Z,34.08
2019-05-03T05:30:15.653Z,34.05
2019-05-03T05:32:46.709Z,37.25
2019-05-03T05:35:35.328Z,36.40
2019-05-03T05:38:05.356Z,35.75
2019-05-03T05:40:36.413Z,34.73
2019-05-03T05:43:12.676Z,37.15
2019-05-03T05:45:45.760Z,34.43
2019-05-03T05:48:29.721Z,35.35
2019-05-03T05:51:04.468Z,34.65
2019-05-03T05:53:35.874Z,33.40
2019-05-03T05:56:15.769Z,35.60
2019-05-03T05:58:55.298Z,32.25
2019-05-03T06:01:38.691Z,35.90
2019-05-03T06:04:10.101Z,32.53
2019-05-03T06:06:47.689Z,32.15
2019-05-03T06:09:25.663Z,34.63
2019-05-03T06:12:01.254Z,31.15
2019-05-03T06:14:36.313Z,34.53
2019-05-03T06:17:16.531Z,32.85
2019-05-03T06:19:50.897Z,30.77
2019-05-03T06:22:39.745Z,29.85
2019-05-03T06:25:32.641Z,29.42
2019-05-03T06:28:15.570Z,28.52
2019-05-03T06:30:39.874Z,28.83
2019-05-03T06:33:22.061Z,29.12
2019-05-03T06:35:52.149Z,28.75
2019-05-03T06:38:24.264Z,25.45
2019-05-03T06:40:54.479Z,25.70
2019-05-03T06:43:24.637Z,29.05
2019-05-03T06:45:57.765Z,27.60
2019-05-03T06:48:31.851Z,27.50
2019-05-03T06:51:08.667Z,25.92
2019-05-03T06:53:35.395Z,27.50
2019-05-03T06:56:06.421Z,27.62
2019-05-03T06:58:44.850Z,27.05
2019-05-03T07:01:17.590Z,28.67
2019-05-03T07:03:51.309Z,27.60
2019-05-03T07:06:40.161Z,28.95
2019-05-03T07:09:19.297Z,28.25
2019-05-03T07:11:49.378Z,28.55
2019-05-03T07:14:24.728Z,28.57
2019-05-03T07:16:55.361Z,27.35
2019-05-03T07:19:25.613Z,28.35
2019-05-03T07:21:55.693Z,28.83
2019-05-03T07:24:26.789Z,29.20
2019-05-03T07:26:59.133Z,27.75
2019-05-03T07:29:29.981Z,27.65
2019-05-03T07:32:02.059Z,27.62
2019-05-03T07:34:32.169Z,27.20
2019-05-03T07:37:02.286Z,25.52
2019-05-03T07:39:32.369Z,24.50
2019-05-03T07:42:05.410Z,22.90
2019-05-03T07:44:35.741Z,23.65
2019-05-03T07:47:05.837Z,21.12
2019-05-03T07:49:35.980Z,23.20
2019-05-03T07:52:06.093Z,22.67
2019-05-03T07:54:36.170Z,23.73
2019-05-03T07:57:26.338Z,24.57
2019-05-03T07:59:57.395Z,17.37
2019-05-03T08:02:29.449Z,17.65
2019-05-03T08:04:59.529Z,16.35
2019-05-03T08:07:37.601Z,16.55
2019-05-03T08:10:15.393Z,14.30
2019-05-03T08:12:45.481Z,13.28
2019-05-03T08:15:21.606Z,14.70
2019-05-03T08:17:51.725Z,15.48
2019-05-03T08:20:21.811Z,14.40
2019-05-03T08:23:07.237Z,13.70
2019-05-03T08:26:21.809Z,13.55
2019-05-03T08:28:54.525Z,12.65
2019-05-03T08:31:32.342Z,12.13
2019-05-03T08:34:04.939Z,12.20
2019-05-03T08:36:59.698Z,13.20
2019-05-03T08:39:38.011Z,12.78
2019-05-03T08:42:12.537Z,12.28
2019-05-03T08:44:42.621Z,11.60
2019-05-03T08:47:20.445Z,13.20
2019-05-03T08:49:55.251Z,13.40
2019-05-03T08:53:04.878Z,11.90
2019-05-03T08:56:15.643Z,12.15
2019-05-03T08:58:55.431Z,10.73
2019-05-03T09:01:42.999Z,9.40
2019-05-03T09:04:15.371Z,9.77
2019-05-03T09:06:51.469Z,9.90
2019-05-03T09:09:34.895Z,8.87
2019-05-03T09:12:19.301Z,8.30
2019-05-03T09:15:01.778Z,8.13
2019-05-03T09:17:45.237Z,8.50
2019-05-03T09:20:21.106Z,8.00
2019-05-03T09:22:57.255Z,7.30
2019-05-03T09:25:27.419Z,8.37
2019-05-03T09:28:06.818Z,7.63
2019-05-03T09:30:36.994Z,7.67
2019-05-03T09:33:10.081Z,7.70
2019-05-03T09:35:46.258Z,7.20
2019-05-03T09:38:21.293Z,7.20
2019-05-03T09:40:51.993Z,8.20
2019-05-03T09:43:28.293Z,6.75
2019-05-03T09:46:05.401Z,6.42
2019-05-03T09:48:35.514Z,7.35
2019-05-03T09:51:05.874Z,7.65
2019-05-03T09:53:51.172Z,7.33
2019-05-03T09:56:22.898Z,6.57
2019-05-03T09:58:59.290Z,7.23
2019-05-03T10:01:29.435Z,7.47
2019-05-03T10:03:59.716Z,7.50
2019-05-03T10:06:29.828Z,7.00
2019-05-03T10:08:59.971Z,6.90
2019-05-03T10:11:30.194Z,7.43
2019-05-03T10:14:02.238Z,7.10
2019-05-03T10:16:35.169Z,6.50
2019-05-03T10:19:05.207Z,9.10
2019-05-03T10:21:36.988Z,6.70
2019-05-03T10:24:15.210Z,6.80
2019-05-03T10:26:46.514Z,7.17
2019-05-03T10:29:22.521Z,6.43
2019-05-03T10:31:56.138Z,7.23
2019-05-03T10:34:32.210Z,7.47
2019-05-03T10:37:10.738Z,6.60
2019-05-03T10:39:48.850Z,6.87
2019-05-03T10:42:19.938Z,7.07
2019-05-03T10:44:50.014Z,6.07
2019-05-03T10:47:21.039Z,6.67
2019-05-03T10:49:54.845Z,6.97
2019-05-03T10:52:28.658Z,7.07
2019-05-03T10:55:11.893Z,6.80
2019-05-03T10:57:46.322Z,7.70
2019-05-03T11:00:42.432Z,5.93
2019-05-03T11:02:54.952Z,6.00
2019-05-03T11:05:25.757Z,6.80
2019-05-03T11:07:55.846Z,6.37
2019-05-03T11:10:27.978Z,6.87
2019-05-03T11:12:58.065Z,6.77
2019-05-03T11:15:30.106Z,6.20
2019-05-03T11:18:08.194Z,4.70
2019-05-03T11:20:39.373Z,3.53
2019-05-03T11:23:09.518Z,3.83
2019-05-03T11:25:40.590Z,4.00
2019-05-03T11:28:12.411Z,3.47
2019-05-03T11:30:53.056Z,3.20
2019-05-03T11:33:16.926Z,2.80
2019-05-03T11:35:55.271Z,2.60
2019-05-03T11:38:26.998Z,2.20
2019-05-03T11:41:04.877Z,2.07
2019-05-03T11:43:35.109Z,2.43
2019-05-03T11:46:05.212Z,2.07
2019-05-03T11:48:35.306Z,1.97
2019-05-03T11:51:07.425Z,1.70
2019-05-03T11:53:38.458Z,1.60
2019-05-03T11:56:08.566Z,1.93
2019-05-03T11:58:38.647Z,1.87
2019-05-03T12:01:15.320Z,2.10
2019-05-03T12:03:46.051Z,2.03
2019-05-03T12:06:16.122Z,2.03
2019-05-03T12:08:48.206Z,1.83
2019-05-03T12:11:18.296Z,2.00
2019-05-03T12:14:02.376Z,1.30
2019-05-03T12:17:08.221Z,1.40
2019-05-03T12:19:15.739Z,2.17
2019-05-03T12:21:41.132Z,1.77
2019-05-03T12:24:19.231Z,1.73
2019-05-03T12:26:50.505Z,2.00
2019-05-03T12:29:20.617Z,2.30
2019-05-03T12:31:55.830Z,2.10
2019-05-03T12:34:25.918Z,1.80
2019-05-03T12:36:56.132Z,1.70
2019-05-03T12:39:30.321Z,1.90
2019-05-03T12:41:58.051Z,1.90
2019-05-03T12:44:28.088Z,1.50
2019-05-03T12:46:58.194Z,1.40
2019-05-03T12:49:28.311Z,1.60
2019-05-03T12:52:01.467Z,1.40
2019-05-03T12:54:32.518Z,1.93
2019-05-03T12:57:04.821Z,2.00
2019-05-03T12:59:36.093Z,1.67
2019-05-03T13:02:07.970Z,1.83
2019-05-03T13:04:46.351Z,1.87
2019-05-03T13:07:18.083Z,1.80
2019-05-03T13:09:55.375Z,1.97
2019-05-03T13:12:28.051Z,2.03
2019-05-03T13:14:58.206Z,2.20
2019-05-03T13:17:37.742Z,2.23
2019-05-03T13:20:16.470Z,2.30
2019-05-03T13:22:47.526Z,2.23
2019-05-03T13:25:18.655Z,2.40
2019-05-03T13:27:48.754Z,1.97
2019-05-03T13:30:19.243Z,2.47
2019-05-03T13:32:50.282Z,2.27
2019-05-03T13:35:20.369Z,1.90
2019-05-03T13:37:52.474Z,2.70
2019-05-03T13:40:25.018Z,2.23
2019-05-03T13:43:04.449Z,2.40
2019-05-03T13:45:46.558Z,2.50
2019-05-03T13:48:24.212Z,2.20
2019-05-03T13:51:05.301Z,2.30
2019-05-03T13:53:35.695Z,2.40
2019-05-03T13:56:06.352Z,3.17
2019-05-03T13:58:36.434Z,2.60
2019-05-03T14:01:10.726Z,2.70
2019-05-03T14:03:40.822Z,2.90
2019-05-03T14:06:11.887Z,3.50
2019-05-03T14:08:47.818Z,2.97
2019-05-03T14:11:21.994Z,2.87
2019-05-03T14:13:52.059Z,4.00
2019-05-03T14:16:22.138Z,3.37
2019-05-03T14:19:01.742Z,3.37
2019-05-03T14:21:34.588Z,3.30
2019-05-03T14:24:15.777Z,4.40
2019-05-03T14:26:46.114Z,4.23
2019-05-03T14:29:18.362Z,3.63
2019-05-03T14:31:54.667Z,4.03
2019-05-03T14:34:25.663Z,3.40
2019-05-03T14:36:55.990Z,3.60
2019-05-03T14:39:29.106Z,3.53
2019-05-03T14:41:59.218Z,3.33
2019-05-03T14:44:29.375Z,4.13
2019-05-03T14:46:59.546Z,3.47
2019-05-03T14:49:31.532Z,3.97
2019-05-03T14:52:02.602Z,4.67
2019-05-03T14:54:34.604Z,4.70
2019-05-03T14:57:12.314Z,4.83
2019-05-03T15:00:00.015Z,4.20
2019-05-03T15:02:42.979Z,4.20
2019-05-03T15:05:07.208Z,4.17
2019-05-03T15:07:45.881Z,3.50
2019-05-03T15:10:15.990Z,4.00
2019-05-03T15:12:59.110Z,5.67
2019-05-03T15:15:29.219Z,4.80
2019-05-03T15:18:11.258Z,5.53
2019-05-03T15:20:41.407Z,4.43
2019-05-03T15:23:19.554Z,5.07
2019-05-03T15:25:49.986Z,4.33
2019-05-03T15:28:20.078Z,4.63
2019-05-03T15:30:51.150Z,4.70
2019-05-03T15:33:27.099Z,5.20
2019-05-03T15:35:58.130Z,4.70
2019-05-03T15:38:28.231Z,4.83
2019-05-03T15:41:01.355Z,4.67
2019-05-03T15:43:34.785Z,5.00
2019-05-03T15:46:27.408Z,4.73
2019-05-03T15:49:02.138Z,4.57
2019-05-03T15:51:32.239Z,4.87
2019-05-03T15:54:08.186Z,4.93
2019-05-03T15:56:44.915Z,4.87
2019-05-03T15:59:21.123Z,4.17
2019-05-03T16:01:51.242Z,4.60
2019-05-03T16:04:26.261Z,4.60
2019-05-03T16:07:05.286Z,4.70
2019-05-03T16:09:35.374Z,4.13
2019-05-03T16:12:05.469Z,4.73
2019-05-03T16:14:35.558Z,4.37
2019-05-03T16:17:05.710Z,6.13
2019-05-03T16:19:45.179Z,5.93
2019-05-03T16:22:20.551Z,5.47
2019-05-03T16:24:50.651Z,4.93
2019-05-03T16:27:24.792Z,5.10
2019-05-03T16:29:55.200Z,4.83
2019-05-03T16:32:25.302Z,4.73
2019-05-03T16:34:57.439Z,4.83
2019-05-03T16:37:28.438Z,5.03
2019-05-03T16:40:17.414Z,4.77
2019-05-03T16:42:48.842Z,5.07
2019-05-03T16:45:19.275Z,4.33
2019-05-03T16:47:58.222Z,4.60
2019-05-03T16:50:28.342Z,5.20
2019-05-03T16:52:58.434Z,6.57
2019-05-03T16:55:30.518Z,5.40
2019-05-03T16:58:06.414Z,6.53
2019-05-03T17:00:38.406Z,5.40
2019-05-03T17:03:09.482Z,4.90
2019-05-03T17:05:42.146Z,4.70
2019-05-03T17:08:27.363Z,4.63
2019-05-03T17:11:05.610Z,5.37
2019-05-03T17:13:35.951Z,5.50
2019-05-03T17:16:08.062Z,5.40
2019-05-03T17:18:40.990Z,4.63
2019-05-03T17:21:16.357Z,4.93
2019-05-03T17:23:48.514Z,6.00
2019-05-03T17:26:19.563Z,5.60
2019-05-03T17:28:49.674Z,5.33
2019-05-03T17:31:28.613Z,6.33
2019-05-03T17:33:59.638Z,6.87
2019-05-03T17:36:35.708Z,5.37
2019-05-03T17:39:09.795Z,5.03
2019-05-03T17:41:46.811Z,6.37
2019-05-03T17:44:21.018Z,8.97
2019-05-03T17:46:56.335Z,5.43
2019-05-03T17:49:26.447Z,6.10
2019-05-03T17:52:00.950Z,6.07
2019-05-03T17:54:39.498Z,6.60
2019-05-03T17:57:24.416Z,7.60
2019-05-03T18:00:14.192Z,7.03
2019-05-03T18:02:49.110Z,8.10
2019-05-03T18:05:37.174Z,9.37
2019-05-03T18:08:10.806Z,8.53
2019-05-03T18:10:55.095Z,7.87
2019-05-03T18:13:25.194Z,8.90
2019-05-03T18:15:55.295Z,6.60
2019-05-03T18:18:26.327Z,5.60
2019-05-03T18:20:56.433Z,6.17
2019-05-03T18:23:30.470Z,6.50
2019-05-03T18:26:00.550Z,7.17
2019-05-03T18:28:31.614Z,6.87
2019-05-03T18:31:05.364Z,6.33
2019-05-03T18:33:36.582Z,7.20
2019-05-03T18:36:07.699Z,6.73
2019-05-03T18:38:39.774Z,6.92
2019-05-03T18:41:12.606Z,7.08
2019-05-03T18:43:46.827Z,6.55
2019-05-03T18:46:24.270Z,7.67
2019-05-03T18:48:56.339Z,7.85
2019-05-03T18:51:34.372Z,6.40
2019-05-03T18:54:12.854Z,5.92
2019-05-03T18:56:43.887Z,6.53
2019-05-03T18:59:28.088Z,7.97
2019-05-03T19:02:05.425Z,9.50
2019-05-03T19:04:37.850Z,11.20
2019-05-03T19:07:11.771Z,9.25
2019-05-03T19:09:43.482Z,8.48
2019-05-03T19:12:18.230Z,13.25
2019-05-03T19:14:48.398Z,10.03
2019-05-03T19:17:37.422Z,7.67
2019-05-03T19:20:11.290Z,8.03
2019-05-03T19:22:41.347Z,7.37
2019-05-03T19:25:45.755Z,6.08
2019-05-03T19:28:19.294Z,7.62
2019-05-03T19:31:01.812Z,6.72
2019-05-03T19:33:34.789Z,8.28
2019-05-03T19:36:05.654Z,8.93
2019-05-03T19:38:36.690Z,8.43
2019-05-03T19:41:06.778Z,9.38
2019-05-03T19:43:37.851Z,8.40
2019-05-03T19:46:07.980Z,7.45
2019-05-03T19:48:47.478Z,6.17
2019-05-03T19:51:25.486Z,6.30
2019-05-03T19:53:56.452Z,5.80
2019-05-03T19:56:27.498Z,7.20
2019-05-03T19:58:59.707Z,7.83
2019-05-03T20:01:44.434Z,8.28
2019-05-03T20:04:31.771Z,8.53
2019-05-03T20:07:25.147Z,8.70
2019-05-03T20:09:57.408Z,9.10
2019-05-03T20:12:27.506Z,8.40
2019-05-03T20:15:00.031Z,6.60
2019-05-03T20:17:38.026Z,6.87
2019-05-03T20:20:09.227Z,10.82
2019-05-03T20:22:39.302Z,9.98
2019-05-03T20:25:10.894Z,14.47
2019-05-03T20:27:48.724Z,13.85
2019-05-03T20:30:26.823Z,11.15
2019-05-03T20:33:05.027Z,10.82
2019-05-03T20:35:36.063Z,10.72
2019-05-03T20:38:30.415Z,8.83
2019-05-03T20:41:00.522Z,10.00
2019-05-03T20:43:44.619Z,10.85
2019-05-03T20:46:33.750Z,18.42
2019-05-03T20:49:11.267Z,9.28
2019-05-03T20:51:45.322Z,8.70
2019-05-03T20:54:16.107Z,8.80
2019-05-03T20:56:54.642Z,7.12
2019-05-03T20:59:25.342Z,8.73
2019-05-03T21:01:55.553Z,13.40
2019-05-03T21:04:25.626Z,12.35
2019-05-03T21:07:04.605Z,11.68
2019-05-03T21:09:38.322Z,8.68
2019-05-03T21:12:08.475Z,8.80
2019-05-03T21:14:38.555Z,7.60
2019-05-03T21:17:10.275Z,6.85
2019-05-03T21:19:44.578Z,7.80
2019-05-03T21:22:24.935Z,7.92
2019-05-03T21:25:01.119Z,7.70
2019-05-03T21:27:39.600Z,8.50
2019-05-03T21:30:15.500Z,8.13
2019-05-03T21:32:49.298Z,8.45
2019-05-03T21:35:38.315Z,9.03
2019-05-03T21:37:58.030Z,8.80
2019-05-03T21:40:35.042Z,8.90
2019-05-03T21:43:05.171Z,10.23
2019-05-03T21:45:38.235Z,7.47
2019-05-03T21:48:14.475Z,9.35
2019-05-03T21:50:45.660Z,8.38
2019-05-03T21:53:15.724Z,8.55
2019-05-03T21:55:45.836Z,9.10
2019-05-03T21:58:16.561Z,8.73
2019-05-03T22:00:55.307Z,8.40
2019-05-03T22:03:35.468Z,8.65
2019-05-03T22:06:07.566Z,8.60
2019-05-03T22:08:42.675Z,9.00
2019-05-03T22:11:14.690Z,9.40
2019-05-03T22:13:46.473Z,8.98
2019-05-03T22:16:24.589Z,9.40
2019-05-03T22:18:56.711Z,9.45
2019-05-03T22:21:31.103Z,9.90
2019-05-03T22:24:04.839Z,10.00
2019-05-03T22:26:53.380Z,9.35
2019-05-03T22:29:25.435Z,9.83
2019-05-03T22:31:57.295Z,10.10
2019-05-03T22:34:34.815Z,10.63
2019-05-03T22:37:11.849Z,9.80
2019-05-03T22:39:48.759Z,11.55
2019-05-03T22:42:18.831Z,10.08
2019-05-03T22:44:55.215Z,8.80
2019-05-03T22:47:32.307Z,9.35
2019-05-03T22:50:02.375Z,9.95
2019-05-03T22:52:32.499Z,9.95
2019-05-03T22:55:07.079Z,11.38
2019-05-03T22:57:37.355Z,10.15
2019-05-03T23:00:21.887Z,10.20
2019-05-03T23:02:57.792Z,8.60
2019-05-03T23:05:27.863Z,11.00
2019-05-03T23:08:07.943Z,10.48
2019-05-03T23:10:47.871Z,11.88
2019-05-03T23:13:19.884Z,15.98
2019-05-03T23:15:50.927Z,11.15
2019-05-03T23:18:44.425Z,10.82
2019-05-03T23:21:19.198Z,11.00
2019-05-03T23:23:50.587Z,10.32
2019-05-03T23:26:22.660Z,11.25
2019-05-03T23:28:52.711Z,9.95
2019-05-03T23:31:25.181Z,11.00
2019-05-03T23:33:57.419Z,9.98
2019-05-03T23:36:33.498Z,9.50
2019-05-03T23:39:01.191Z,11.12
2019-05-03T23:41:43.367Z,9.73
2019-05-03T23:44:26.647Z,9.90
2019-05-03T23:47:22.012Z,10.25
2019-05-03T23:49:58.306Z,9.15
2019-05-03T23:52:40.616Z,9.68
2019-05-03T23:55:18.175Z,10.03
2019-05-03T23:57:52.320Z,9.08
